sensor_id;sensor_type;location;lat;lon;timestamp;P1;durP1;ratioP1;P2;durP2;ratioP2
22236;SDS011;11287;48.122;11.536;2023-08-01T00:01:29;3.35;;;2.55;;
22236;SDS011;11287;48.122;11.536;2023-08-01T00:03:54;9.45;;;2.92;;
22236;SDS011;11287;48.122;11.536;2023-08-01T00:06:20;2.55;;;2.30;;
22236;SDS011;11287;48.122;11.536;2023-08-01T00:08:46;3.28;;;2.15;;
22236;SDS011;11287;48.122;11.536;2023-08-01T00:11:12;2.55;;;2.10;;
22236;SDS011;11287;48.122;11.536;2023-08-01T00:13:39;3.58;;;2.10;;
22236;SDS011;11287;48.122;11.536;2023-08-01T00:16:04;2.83;;;2.35;;
22236;SDS011;11287;48.122;11.536;2023-08-01T00:18:29;4.45;;;2.35;;
22236;SDS011;11287;48.122;11.536;2023-08-01T00:20:55;2.72;;;2.30;;
22236;SDS011;11287;48.122;11.536;2023-08-01T00:23:20;2.78;;;2.40;;
22236;SDS011;11287;48.122;11.536;2023-08-01T00:25:45;2.38;;;2.13;;
22236;SDS011;11287;48.122;11.536;2023-08-01T00:28:16;6.50;;;2.40;;
22236;SDS011;11287;48.122;11.536;2023-08-01T00:30:42;2.83;;;2.33;;
22236;SDS011;11287;48.122;11.536;2023-08-01T00:33:07;2.92;;;2.38;;
22236;SDS011;11287;48.122;11.536;2023-08-01T00:35:32;2.58;;;2.38;;
22236;SDS011;11287;48.122;11.536;2023-08-01T00:37:58;3.20;;;2.43;;
22236;SDS011;11287;48.122;11.536;2023-08-01T00:40:23;3.37;;;2.60;;
22236;SDS011;11287;48.122;11.536;2023-08-01T00:42:49;2.67;;;2.45;;
22236;SDS011;11287;48.122;11.536;2023-08-01T00:45:20;3.53;;;2.45;;
22236;SDS011;11287;48.122;11.536;2023-08-01T00:47:45;4.88;;;2.65;;
22236;SDS011;11287;48.122;11.536;2023-08-01T00:50:11;3.08;;;2.10;;
22236;SDS011;11287;48.122;11.536;2023-08-01T00:52:36;2.72;;;2.15;;
22236;SDS011;11287;48.122;11.536;2023-08-01T00:55:02;3.13;;;2.40;;
22236;SDS011;11287;48.122;11.536;2023-08-01T00:57:27;2.67;;;2.28;;
22236;SDS011;11287;48.122;11.536;2023-08-01T00:59:53;3.00;;;2.40;;
22236;SDS011;11287;48.122;11.536;2023-08-01T01:02:18;3.40;;;2.50;;
22236;SDS011;11287;48.122;11.536;2023-08-01T01:04:43;4.05;;;2.38;;
22236;SDS011;11287;48.122;11.536;2023-08-01T01:07:09;3.45;;;2.67;;
22236;SDS011;11287;48.122;11.536;2023-08-01T01:09:34;4.90;;;2.50;;
22236;SDS011;11287;48.122;11.536;2023-08-01T01:12:00;3.42;;;2.58;;
22236;SDS011;11287;48.122;11.536;2023-08-01T01:14:26;3.85;;;2.83;;
22236;SDS011;11287;48.122;11.536;2023-08-01T01:16:52;3.63;;;2.30;;
22236;SDS011;11287;48.122;11.536;2023-08-01T01:19:17;3.03;;;2.25;;
22236;SDS011;11287;48.122;11.536;2023-08-01T01:21:42;5.22;;;2.50;;
22236;SDS011;11287;48.122;11.536;2023-08-01T01:24:08;3.17;;;2.40;;
22236;SDS011;11287;48.122;11.536;2023-08-01T01:26:35;3.25;;;2.30;;
22236;SDS011;11287;48.122;11.536;2023-08-01T01:29:02;2.75;;;2.33;;
22236;SDS011;11287;48.122;11.536;2023-08-01T01:31:28;3.15;;;2.55;;
22236;SDS011;11287;48.122;11.536;2023-08-01T01:33:54;2.50;;;2.00;;
22236;SDS011;11287;48.122;11.536;2023-08-01T01:36:20;3.50;;;2.20;;
22236;SDS011;11287;48.122;11.536;2023-08-01T01:38:45;4.75;;;2.50;;
22236;SDS011;11287;48.122;11.536;2023-08-01T01:41:10;3.40;;;2.47;;
22236;SDS011;11287;48.122;11.536;2023-08-01T01:43:36;3.33;;;2.47;;
22236;SDS011;11287;48.122;11.536;2023-08-01T01:46:02;3.67;;;2.58;;
22236;SDS011;11287;48.122;11.536;2023-08-01T01:48:28;4.82;;;2.70;;
22236;SDS011;11287;48.122;11.536;2023-08-01T01:50:53;3.23;;;2.43;;
22236;SDS011;11287;48.122;11.536;2023-08-01T01:53:18;5.93;;;2.58;;
22236;SDS011;11287;48.122;11.536;2023-08-01T01:55:43;4.83;;;2.77;;
22236;SDS011;11287;48.122;11.536;2023-08-01T01:58:09;6.10;;;2.70;;
22236;SDS011;11287;48.122;11.536;2023-08-01T02:00:34;4.00;;;2.60;;
22236;SDS011;11287;48.122;11.536;2023-08-01T02:02:59;4.10;;;2.60;;
22236;SDS011;11287;48.122;11.536;2023-08-01T02:05:27;3.35;;;2.20;;
22236;SDS011;11287;48.122;11.536;2023-08-01T02:07:53;3.83;;;2.83;;
22236;SDS011;11287;48.122;11.536;2023-08-01T02:10:18;4.35;;;2.67;;
22236;SDS011;11287;48.122;11.536;2023-08-01T02:12:43;5.40;;;2.65;;
22236;SDS011;11287;48.122;11.536;2023-08-01T02:15:09;3.63;;;2.60;;
22236;SDS011;11287;48.122;11.536;2023-08-01T02:17:34;3.13;;;2.60;;
22236;SDS011;11287;48.122;11.536;2023-08-01T02:19:59;3.67;;;2.72;;
22236;SDS011;11287;48.122;11.536;2023-08-01T02:22:25;2.97;;;2.67;;
22236;SDS011;11287;48.122;11.536;2023-08-01T02:24:51;3.95;;;2.63;;
22236;SDS011;11287;48.122;11.536;2023-08-01T02:27:16;2.90;;;2.55;;
22236;SDS011;11287;48.122;11.536;2023-08-01T02:29:42;3.70;;;2.80;;
22236;SDS011;11287;48.122;11.536;2023-08-01T02:32:07;3.38;;;2.50;;
22236;SDS011;11287;48.122;11.536;2023-08-01T02:34:32;6.57;;;2.80;;
22236;SDS011;11287;48.122;11.536;2023-08-01T02:36:58;3.42;;;2.90;;
22236;SDS011;11287;48.122;11.536;2023-08-01T02:39:23;4.03;;;2.88;;
22236;SDS011;11287;48.122;11.536;2023-08-01T02:41:49;2.78;;;2.50;;
22236;SDS011;11287;48.122;11.536;2023-08-01T02:44:14;3.28;;;2.60;;
22236;SDS011;11287;48.122;11.536;2023-08-01T02:46:39;5.20;;;2.83;;
22236;SDS011;11287;48.122;11.536;2023-08-01T02:49:05;4.07;;;3.03;;
22236;SDS011;11287;48.122;11.536;2023-08-01T02:51:30;5.65;;;2.45;;
22236;SDS011;11287;48.122;11.536;2023-08-01T02:53:55;3.22;;;2.92;;
22236;SDS011;11287;48.122;11.536;2023-08-01T02:56:20;5.03;;;2.90;;
22236;SDS011;11287;48.122;11.536;2023-08-01T02:58:46;3.85;;;2.75;;
22236;SDS011;11287;48.122;11.536;2023-08-01T03:01:11;3.22;;;2.53;;
22236;SDS011;11287;48.122;11.536;2023-08-01T03:03:37;3.55;;;2.78;;
22236;SDS011;11287;48.122;11.536;2023-08-01T03:06:02;5.35;;;2.85;;
22236;SDS011;11287;48.122;11.536;2023-08-01T03:08:28;3.13;;;2.67;;
22236;SDS011;11287;48.122;11.536;2023-08-01T03:10:53;2.88;;;2.60;;
22236;SDS011;11287;48.122;11.536;2023-08-01T03:13:19;3.25;;;2.63;;
22236;SDS011;11287;48.122;11.536;2023-08-01T03:15:45;5.35;;;2.70;;
22236;SDS011;11287;48.122;11.536;2023-08-01T03:18:10;6.15;;;3.00;;
22236;SDS011;11287;48.122;11.536;2023-08-01T03:20:35;6.00;;;3.22;;
22236;SDS011;11287;48.122;11.536;2023-08-01T03:23:01;3.75;;;3.20;;
22236;SDS011;11287;48.122;11.536;2023-08-01T03:25:26;4.70;;;2.70;;
22236;SDS011;11287;48.122;11.536;2023-08-01T03:27:52;4.95;;;2.80;;
22236;SDS011;11287;48.122;11.536;2023-08-01T03:30:17;4.15;;;2.97;;
22236;SDS011;11287;48.122;11.536;2023-08-01T03:32:42;4.53;;;3.03;;
22236;SDS011;11287;48.122;11.536;2023-08-01T03:35:08;5.70;;;2.95;;
22236;SDS011;11287;48.122;11.536;2023-08-01T03:37:33;4.15;;;2.92;;
22236;SDS011;11287;48.122;11.536;2023-08-01T03:39:58;2.92;;;2.63;;
22236;SDS011;11287;48.122;11.536;2023-08-01T03:42:24;4.32;;;2.88;;
22236;SDS011;11287;48.122;11.536;2023-08-01T03:44:49;3.10;;;2.80;;
22236;SDS011;11287;48.122;11.536;2023-08-01T03:47:14;3.42;;;2.85;;
22236;SDS011;11287;48.122;11.536;2023-08-01T03:49:40;4.05;;;3.10;;
22236;SDS011;11287;48.122;11.536;2023-08-01T03:52:05;3.67;;;2.78;;
22236;SDS011;11287;48.122;11.536;2023-08-01T03:54:31;4.85;;;3.10;;
22236;SDS011;11287;48.122;11.536;2023-08-01T03:56:56;5.03;;;3.13;;
22236;SDS011;11287;48.122;11.536;2023-08-01T03:59:22;4.53;;;3.20;;
22236;SDS011;11287;48.122;11.536;2023-08-01T04:01:47;4.10;;;3.30;;
22236;SDS011;11287;48.122;11.536;2023-08-01T04:04:12;3.38;;;2.67;;
22236;SDS011;11287;48.122;11.536;2023-08-01T04:06:38;4.75;;;3.45;;
22236;SDS011;11287;48.122;11.536;2023-08-01T04:09:03;6.63;;;3.10;;
22236;SDS011;11287;48.122;11.536;2023-08-01T04:11:28;4.35;;;3.33;;
22236;SDS011;11287;48.122;11.536;2023-08-01T04:13:55;5.50;;;3.47;;
22236;SDS011;11287;48.122;11.536;2023-08-01T04:16:21;3.65;;;3.20;;
22236;SDS011;11287;48.122;11.536;2023-08-01T04:18:47;5.45;;;3.58;;
22236;SDS011;11287;48.122;11.536;2023-08-01T04:21:15;6.53;;;4.18;;
22236;SDS011;11287;48.122;11.536;2023-08-01T04:23:41;5.80;;;3.67;;
22236;SDS011;11287;48.122;11.536;2023-08-01T04:26:06;5.40;;;3.70;;
22236;SDS011;11287;48.122;11.536;2023-08-01T04:28:32;5.65;;;4.32;;
22236;SDS011;11287;48.122;11.536;2023-08-01T04:30:57;4.75;;;3.70;;
22236;SDS011;11287;48.122;11.536;2023-08-01T04:33:23;6.43;;;4.30;;
22236;SDS011;11287;48.122;11.536;2023-08-01T04:35:48;5.72;;;4.60;;
22236;SDS011;11287;48.122;11.536;2023-08-01T04:38:14;7.93;;;4.25;;
22236;SDS011;11287;48.122;11.536;2023-08-01T04:40:39;6.38;;;4.13;;
22236;SDS011;11287;48.122;11.536;2023-08-01T04:43:05;4.93;;;3.67;;
22236;SDS011;11287;48.122;11.536;2023-08-01T04:45:30;6.25;;;4.35;;
22236;SDS011;11287;48.122;11.536;2023-08-01T04:47:55;7.40;;;4.80;;
22236;SDS011;11287;48.122;11.536;2023-08-01T04:50:21;6.50;;;4.70;;
22236;SDS011;11287;48.122;11.536;2023-08-01T04:52:46;9.77;;;5.20;;
22236;SDS011;11287;48.122;11.536;2023-08-01T04:55:11;6.65;;;5.00;;
22236;SDS011;11287;48.122;11.536;2023-08-01T04:57:37;7.72;;;4.78;;
22236;SDS011;11287;48.122;11.536;2023-08-01T05:00:02;7.47;;;5.00;;
22236;SDS011;11287;48.122;11.536;2023-08-01T05:02:28;9.52;;;6.05;;
22236;SDS011;11287;48.122;11.536;2023-08-01T05:04:54;9.25;;;5.57;;
22236;SDS011;11287;48.122;11.536;2023-08-01T05:07:19;8.73;;;5.32;;
22236;SDS011;11287;48.122;11.536;2023-08-01T05:09:44;9.20;;;5.40;;
22236;SDS011;11287;48.122;11.536;2023-08-01T05:12:10;8.70;;;5.32;;
22236;SDS011;11287;48.122;11.536;2023-08-01T05:14:35;11.80;;;5.90;;
22236;SDS011;11287;48.122;11.536;2023-08-01T05:17:01;8.80;;;6.00;;
22236;SDS011;11287;48.122;11.536;2023-08-01T05:19:26;10.85;;;5.57;;
22236;SDS011;11287;48.122;11.536;2023-08-01T05:21:51;8.65;;;5.10;;
22236;SDS011;11287;48.122;11.536;2023-08-01T05:24:17;7.93;;;5.60;;
22236;SDS011;11287;48.122;11.536;2023-08-01T05:26:42;9.32;;;5.07;;
22236;SDS011;11287;48.122;11.536;2023-08-01T05:29:07;6.90;;;4.90;;
22236;SDS011;11287;48.122;11.536;2023-08-01T05:31:33;9.00;;;5.82;;
22236;SDS011;11287;48.122;11.536;2023-08-01T05:33:58;5.45;;;4.88;;
22236;SDS011;11287;48.122;11.536;2023-08-01T05:36:23;6.88;;;4.68;;
22236;SDS011;11287;48.122;11.536;2023-08-01T05:38:49;6.63;;;4.32;;
22236;SDS011;11287;48.122;11.536;2023-08-01T05:41:14;7.22;;;4.88;;
22236;SDS011;11287;48.122;11.536;2023-08-01T05:43:39;6.57;;;4.60;;
22236;SDS011;11287;48.122;11.536;2023-08-01T05:46:05;9.63;;;4.72;;
22236;SDS011;11287;48.122;11.536;2023-08-01T05:48:30;6.63;;;4.68;;
22236;SDS011;11287;48.122;11.536;2023-08-01T05:50:55;8.52;;;4.68;;
22236;SDS011;11287;48.122;11.536;2023-08-01T05:53:21;7.93;;;4.40;;
22236;SDS011;11287;48.122;11.536;2023-08-01T05:55:46;8.73;;;5.00;;
22236;SDS011;11287;48.122;11.536;2023-08-01T05:58:12;5.65;;;4.30;;
22236;SDS011;11287;48.122;11.536;2023-08-01T06:00:37;5.93;;;4.13;;
22236;SDS011;11287;48.122;11.536;2023-08-01T06:03:03;4.93;;;4.07;;
22236;SDS011;11287;48.122;11.536;2023-08-01T06:05:28;5.90;;;3.95;;
22236;SDS011;11287;48.122;11.536;2023-08-01T06:07:53;8.10;;;4.22;;
22236;SDS011;11287;48.122;11.536;2023-08-01T06:10:19;6.45;;;3.67;;
22236;SDS011;11287;48.122;11.536;2023-08-01T06:12:44;8.68;;;4.47;;
22236;SDS011;11287;48.122;11.536;2023-08-01T06:15:09;5.85;;;3.60;;
22236;SDS011;11287;48.122;11.536;2023-08-01T06:17:36;5.55;;;3.80;;
22236;SDS011;11287;48.122;11.536;2023-08-01T06:20:01;5.93;;;3.47;;
22236;SDS011;11287;48.122;11.536;2023-08-01T06:22:29;3.90;;;3.28;;
22236;SDS011;11287;48.122;11.536;2023-08-01T06:24:54;6.32;;;3.85;;
22236;SDS011;11287;48.122;11.536;2023-08-01T06:27:20;4.13;;;3.03;;
22236;SDS011;11287;48.122;11.536;2023-08-01T06:29:45;6.20;;;3.58;;
22236;SDS011;11287;48.122;11.536;2023-08-01T06:32:11;4.55;;;3.47;;
22236;SDS011;11287;48.122;11.536;2023-08-01T06:34:36;5.10;;;3.30;;
22236;SDS011;11287;48.122;11.536;2023-08-01T06:37:01;10.48;;;3.60;;
22236;SDS011;11287;48.122;11.536;2023-08-01T06:39:27;5.18;;;3.28;;
22236;SDS011;11287;48.122;11.536;2023-08-01T06:41:52;5.60;;;3.33;;
22236;SDS011;11287;48.122;11.536;2023-08-01T06:44:18;6.15;;;3.63;;
22236;SDS011;11287;48.122;11.536;2023-08-01T06:46:43;7.60;;;3.80;;
22236;SDS011;11287;48.122;11.536;2023-08-01T06:49:08;4.65;;;3.20;;
22236;SDS011;11287;48.122;11.536;2023-08-01T06:51:34;6.93;;;3.05;;
22236;SDS011;11287;48.122;11.536;2023-08-01T06:53:59;4.65;;;2.75;;
22236;SDS011;11287;48.122;11.536;2023-08-01T06:56:25;5.82;;;3.10;;
22236;SDS011;11287;48.122;11.536;2023-08-01T06:58:50;5.07;;;3.30;;
22236;SDS011;11287;48.122;11.536;2023-08-01T07:01:15;3.30;;;2.80;;
22236;SDS011;11287;48.122;11.536;2023-08-01T07:03:41;5.00;;;4.00;;
22236;SDS011;11287;48.122;11.536;2023-08-01T07:06:06;7.07;;;3.25;;
22236;SDS011;11287;48.122;11.536;2023-08-01T07:08:31;3.53;;;2.58;;
22236;SDS011;11287;48.122;11.536;2023-08-01T07:11:02;4.28;;;2.97;;
22236;SDS011;11287;48.122;11.536;2023-08-01T07:13:32;3.67;;;2.90;;
22236;SDS011;11287;48.122;11.536;2023-08-01T07:15:58;6.10;;;2.50;;
22236;SDS011;11287;48.122;11.536;2023-08-01T07:18:23;3.20;;;2.83;;
22236;SDS011;11287;48.122;11.536;2023-08-01T07:20:58;6.22;;;2.58;;
22236;SDS011;11287;48.122;11.536;2023-08-01T07:23:24;6.97;;;2.92;;
22236;SDS011;11287;48.122;11.536;2023-08-01T07:25:49;4.22;;;2.33;;
22236;SDS011;11287;48.122;11.536;2023-08-01T07:28:14;4.15;;;3.10;;
22236;SDS011;11287;48.122;11.536;2023-08-01T07:30:40;3.63;;;2.63;;
22236;SDS011;11287;48.122;11.536;2023-08-01T07:33:05;3.70;;;2.42;;
22236;SDS011;11287;48.122;11.536;2023-08-01T07:35:30;7.40;;;2.47;;
22236;SDS011;11287;48.122;11.536;2023-08-01T07:37:56;3.88;;;2.80;;
22236;SDS011;11287;48.122;11.536;2023-08-01T07:40:21;3.40;;;2.90;;
22236;SDS011;11287;48.122;11.536;2023-08-01T07:42:46;5.68;;;2.78;;
22236;SDS011;11287;48.122;11.536;2023-08-01T07:45:12;3.58;;;2.60;;
22236;SDS011;11287;48.122;11.536;2023-08-01T07:47:37;5.80;;;2.42;;
22236;SDS011;11287;48.122;11.536;2023-08-01T07:50:02;3.60;;;2.40;;
22236;SDS011;11287;48.122;11.536;2023-08-01T07:52:28;5.30;;;3.10;;
22236;SDS011;11287;48.122;11.536;2023-08-01T07:54:54;4.30;;;2.70;;
22236;SDS011;11287;48.122;11.536;2023-08-01T07:57:22;4.47;;;2.50;;
22236;SDS011;11287;48.122;11.536;2023-08-01T07:59:47;3.17;;;2.75;;
22236;SDS011;11287;48.122;11.536;2023-08-01T08:02:12;3.00;;;2.70;;
22236;SDS011;11287;48.122;11.536;2023-08-01T08:04:38;5.50;;;3.15;;
22236;SDS011;11287;48.122;11.536;2023-08-01T08:07:03;3.22;;;2.67;;
22236;SDS011;11287;48.122;11.536;2023-08-01T08:09:29;3.28;;;2.95;;
22236;SDS011;11287;48.122;11.536;2023-08-01T08:11:54;2.92;;;2.63;;
22236;SDS011;11287;48.122;11.536;2023-08-01T08:14:22;5.20;;;2.50;;
22236;SDS011;11287;48.122;11.536;2023-08-01T08:16:48;6.25;;;2.88;;
22236;SDS011;11287;48.122;11.536;2023-08-01T08:19:13;3.75;;;2.63;;
22236;SDS011;11287;48.122;11.536;2023-08-01T08:21:38;3.63;;;2.85;;
22236;SDS011;11287;48.122;11.536;2023-08-01T08:24:04;4.53;;;2.90;;
22236;SDS011;11287;48.122;11.536;2023-08-01T08:26:29;4.03;;;2.55;;
22236;SDS011;11287;48.122;11.536;2023-08-01T08:28:56;3.35;;;2.88;;
22236;SDS011;11287;48.122;11.536;2023-08-01T08:31:21;4.57;;;2.90;;
22236;SDS011;11287;48.122;11.536;2023-08-01T08:33:46;3.38;;;2.80;;
22236;SDS011;11287;48.122;11.536;2023-08-01T08:36:12;5.28;;;2.88;;
22236;SDS011;11287;48.122;11.536;2023-08-01T08:38:37;4.70;;;3.03;;
22236;SDS011;11287;48.122;11.536;2023-08-01T08:41:08;5.15;;;3.17;;
22236;SDS011;11287;48.122;11.536;2023-08-01T08:43:34;3.58;;;2.88;;
22236;SDS011;11287;48.122;11.536;2023-08-01T08:46:00;4.40;;;3.20;;
22236;SDS011;11287;48.122;11.536;2023-08-01T08:48:26;5.15;;;2.90;;
22236;SDS011;11287;48.122;11.536;2023-08-01T08:50:52;3.13;;;2.83;;
22236;SDS011;11287;48.122;11.536;2023-08-01T08:53:17;4.43;;;3.00;;
22236;SDS011;11287;48.122;11.536;2023-08-01T08:55:43;3.85;;;2.80;;
22236;SDS011;11287;48.122;11.536;2023-08-01T08:58:08;4.00;;;2.53;;
22236;SDS011;11287;48.122;11.536;2023-08-01T09:00:37;4.72;;;3.25;;
22236;SDS011;11287;48.122;11.536;2023-08-01T09:03:03;4.60;;;3.20;;
22236;SDS011;11287;48.122;11.536;2023-08-01T09:05:30;4.93;;;3.70;;
22236;SDS011;11287;48.122;11.536;2023-08-01T09:07:59;3.60;;;2.90;;
22236;SDS011;11287;48.122;11.536;2023-08-01T09:10:28;4.80;;;3.10;;
22236;SDS011;11287;48.122;11.536;2023-08-01T09:12:53;4.13;;;2.93;;
22236;SDS011;11287;48.122;11.536;2023-08-01T09:15:18;5.38;;;3.40;;
22236;SDS011;11287;48.122;11.536;2023-08-01T09:17:50;5.30;;;3.75;;
22236;SDS011;11287;48.122;11.536;2023-08-01T09:20:16;4.28;;;3.33;;
22236;SDS011;11287;48.122;11.536;2023-08-01T09:22:45;5.75;;;3.58;;
22236;SDS011;11287;48.122;11.536;2023-08-01T09:25:11;6.20;;;3.70;;
22236;SDS011;11287;48.122;11.536;2023-08-01T09:27:36;4.60;;;3.47;;
22236;SDS011;11287;48.122;11.536;2023-08-01T09:30:09;5.40;;;3.42;;
22236;SDS011;11287;48.122;11.536;2023-08-01T09:32:36;4.88;;;3.22;;
22236;SDS011;11287;48.122;11.536;2023-08-01T09:35:01;4.57;;;3.47;;
22236;SDS011;11287;48.122;11.536;2023-08-01T09:37:36;6.75;;;3.90;;
22236;SDS011;11287;48.122;11.536;2023-08-01T09:40:11;5.22;;;3.72;;
22236;SDS011;11287;48.122;11.536;2023-08-01T09:42:40;3.88;;;3.30;;
22236;SDS011;11287;48.122;11.536;2023-08-01T09:45:15;5.15;;;3.58;;
22236;SDS011;11287;48.122;11.536;2023-08-01T09:47:42;5.90;;;4.07;;
22236;SDS011;11287;48.122;11.536;2023-08-01T09:50:09;5.00;;;3.53;;
22236;SDS011;11287;48.122;11.536;2023-08-01T09:52:35;8.38;;;3.95;;
22236;SDS011;11287;48.122;11.536;2023-08-01T09:55:00;4.90;;;3.10;;
22236;SDS011;11287;48.122;11.536;2023-08-01T09:57:27;5.82;;;3.17;;
22236;SDS011;11287;48.122;11.536;2023-08-01T09:59:57;5.75;;;2.90;;
22236;SDS011;11287;48.122;11.536;2023-08-01T10:02:24;5.32;;;2.88;;
22236;SDS011;11287;48.122;11.536;2023-08-01T10:04:50;6.47;;;3.03;;
22236;SDS011;11287;48.122;11.536;2023-08-01T10:07:17;5.95;;;2.83;;
22236;SDS011;11287;48.122;11.536;2023-08-01T10:09:47;4.70;;;2.78;;
22236;SDS011;11287;48.122;11.536;2023-08-01T10:12:13;4.30;;;3.20;;
22236;SDS011;11287;48.122;11.536;2023-08-01T10:14:39;3.95;;;3.00;;
22236;SDS011;11287;48.122;11.536;2023-08-01T10:17:04;4.18;;;3.03;;
22236;SDS011;11287;48.122;11.536;2023-08-01T10:19:31;3.15;;;2.80;;
22236;SDS011;11287;48.122;11.536;2023-08-01T10:21:57;4.60;;;3.20;;
22236;SDS011;11287;48.122;11.536;2023-08-01T10:24:23;5.90;;;3.28;;
22236;SDS011;11287;48.122;11.536;2023-08-01T10:26:50;4.20;;;3.17;;
22236;SDS011;11287;48.122;11.536;2023-08-01T10:29:15;5.27;;;3.20;;
22236;SDS011;11287;48.122;11.536;2023-08-01T10:31:50;5.67;;;2.60;;
22236;SDS011;11287;48.122;11.536;2023-08-01T10:34:19;4.25;;;2.88;;
22236;SDS011;11287;48.122;11.536;2023-08-01T10:36:56;3.85;;;2.95;;
22236;SDS011;11287;48.122;11.536;2023-08-01T10:39:22;4.13;;;2.95;;
22236;SDS011;11287;48.122;11.536;2023-08-01T10:41:56;4.70;;;2.83;;
22236;SDS011;11287;48.122;11.536;2023-08-01T10:44:23;6.22;;;2.92;;
22236;SDS011;11287;48.122;11.536;2023-08-01T10:46:49;4.78;;;2.90;;
22236;SDS011;11287;48.122;11.536;2023-08-01T10:49:32;4.13;;;3.23;;
22236;SDS011;11287;48.122;11.536;2023-08-01T10:52:01;4.22;;;3.30;;
22236;SDS011;11287;48.122;11.536;2023-08-01T10:54:57;4.13;;;3.00;;
22236;SDS011;11287;48.122;11.536;2023-08-01T10:57:24;3.28;;;2.85;;
22236;SDS011;11287;48.122;11.536;2023-08-01T10:59:50;5.45;;;3.47;;
22236;SDS011;11287;48.122;11.536;2023-08-01T11:02:22;6.45;;;2.90;;
22236;SDS011;11287;48.122;11.536;2023-08-01T11:04:58;7.30;;;3.08;;
22236;SDS011;11287;48.122;11.536;2023-08-01T11:07:24;5.25;;;3.10;;
22236;SDS011;11287;48.122;11.536;2023-08-01T11:10:01;4.55;;;2.70;;
22236;SDS011;11287;48.122;11.536;2023-08-01T11:12:37;5.95;;;2.47;;
22236;SDS011;11287;48.122;11.536;2023-08-01T11:15:05;2.80;;;2.20;;
22236;SDS011;11287;48.122;11.536;2023-08-01T11:17:33;4.20;;;2.10;;
22236;SDS011;11287;48.122;11.536;2023-08-01T11:20:03;3.28;;;2.65;;
22236;SDS011;11287;48.122;11.536;2023-08-01T11:22:30;2.35;;;2.15;;
22236;SDS011;11287;48.122;11.536;2023-08-01T11:24:56;3.47;;;1.88;;
22236;SDS011;11287;48.122;11.536;2023-08-01T11:27:21;2.00;;;1.83;;
22236;SDS011;11287;48.122;11.536;2023-08-01T11:29:46;2.75;;;1.67;;
22236;SDS011;11287;48.122;11.536;2023-08-01T11:32:12;1.67;;;1.57;;
22236;SDS011;11287;48.122;11.536;2023-08-01T11:34:40;2.00;;;1.63;;
22236;SDS011;11287;48.122;11.536;2023-08-01T11:37:09;3.40;;;1.98;;
22236;SDS011;11287;48.122;11.536;2023-08-01T11:39:35;5.15;;;2.78;;
22236;SDS011;11287;48.122;11.536;2023-08-01T11:42:00;2.72;;;2.10;;
22236;SDS011;11287;48.122;11.536;2023-08-01T11:44:26;4.57;;;2.17;;
22236;SDS011;11287;48.122;11.536;2023-08-01T11:46:51;4.60;;;2.17;;
22236;SDS011;11287;48.122;11.536;2023-08-01T11:49:16;2.30;;;2.05;;
22236;SDS011;11287;48.122;11.536;2023-08-01T11:51:43;5.25;;;2.65;;
22236;SDS011;11287;48.122;11.536;2023-08-01T11:54:09;3.15;;;2.20;;
22236;SDS011;11287;48.122;11.536;2023-08-01T11:56:37;2.58;;;2.30;;
22236;SDS011;11287;48.122;11.536;2023-08-01T12:01:39;5.93;;;2.78;;
22236;SDS011;11287;48.122;11.536;2023-08-01T12:04:09;3.47;;;2.30;;
22236;SDS011;11287;48.122;11.536;2023-08-01T12:06:34;3.42;;;2.40;;
22236;SDS011;11287;48.122;11.536;2023-08-01T12:09:12;2.70;;;2.25;;
22236;SDS011;11287;48.122;11.536;2023-08-01T12:11:38;2.97;;;2.20;;
22236;SDS011;11287;48.122;11.536;2023-08-01T12:14:14;3.00;;;2.47;;
22236;SDS011;11287;48.122;11.536;2023-08-01T12:16:41;2.03;;;1.85;;
22236;SDS011;11287;48.122;11.536;2023-08-01T12:19:09;3.60;;;2.47;;
22236;SDS011;11287;48.122;11.536;2023-08-01T12:21:35;2.60;;;2.35;;
22236;SDS011;11287;48.122;11.536;2023-08-01T12:24:01;2.90;;;2.05;;
22236;SDS011;11287;48.122;11.536;2023-08-01T12:26:27;2.75;;;2.30;;
22236;SDS011;11287;48.122;11.536;2023-08-01T12:28:52;2.00;;;1.80;;
22236;SDS011;11287;48.122;11.536;2023-08-01T12:31:18;2.45;;;2.22;;
22236;SDS011;11287;48.122;11.536;2023-08-01T12:33:44;3.00;;;2.13;;
22236;SDS011;11287;48.122;11.536;2023-08-01T12:36:11;2.67;;;2.20;;
22236;SDS011;11287;48.122;11.536;2023-08-01T12:38:36;3.20;;;1.92;;
22236;SDS011;11287;48.122;11.536;2023-08-01T12:41:03;2.47;;;2.23;;
22236;SDS011;11287;48.122;11.536;2023-08-01T12:43:28;3.35;;;2.30;;
22236;SDS011;11287;48.122;11.536;2023-08-01T12:45:53;2.50;;;1.98;;
22236;SDS011;11287;48.122;11.536;2023-08-01T12:48:20;1.75;;;1.63;;
22236;SDS011;11287;48.122;11.536;2023-08-01T12:50:45;3.88;;;2.60;;
22236;SDS011;11287;48.122;11.536;2023-08-01T12:53:11;3.40;;;2.53;;
22236;SDS011;11287;48.122;11.536;2023-08-01T12:55:37;7.47;;;2.10;;
22236;SDS011;11287;48.122;11.536;2023-08-01T12:58:02;1.85;;;1.60;;
22236;SDS011;11287;48.122;11.536;2023-08-01T13:00:29;2.17;;;1.80;;
22236;SDS011;11287;48.122;11.536;2023-08-01T13:02:55;2.40;;;1.90;;
22236;SDS011;11287;48.122;11.536;2023-08-01T13:05:20;1.75;;;1.65;;
22236;SDS011;11287;48.122;11.536;2023-08-01T13:07:45;2.63;;;1.70;;
22236;SDS011;11287;48.122;11.536;2023-08-01T13:10:11;1.88;;;1.73;;
22236;SDS011;11287;48.122;11.536;2023-08-01T13:12:36;1.73;;;1.60;;
22236;SDS011;11287;48.122;11.536;2023-08-01T13:15:01;2.07;;;1.80;;
22236;SDS011;11287;48.122;11.536;2023-08-01T13:17:27;2.00;;;1.80;;
22236;SDS011;11287;48.122;11.536;2023-08-01T13:19:52;1.98;;;1.77;;
22236;SDS011;11287;48.122;11.536;2023-08-01T13:22:18;1.90;;;1.80;;
22236;SDS011;11287;48.122;11.536;2023-08-01T13:24:44;2.42;;;1.95;;
22236;SDS011;11287;48.122;11.536;2023-08-01T13:27:11;2.45;;;2.25;;
22236;SDS011;11287;48.122;11.536;2023-08-01T13:29:37;4.10;;;2.23;;
22236;SDS011;11287;48.122;11.536;2023-08-01T13:32:02;7.18;;;5.63;;
22236;SDS011;11287;48.122;11.536;2023-08-01T13:34:27;4.13;;;3.72;;
22236;SDS011;11287;48.122;11.536;2023-08-01T13:36:53;4.40;;;2.50;;
22236;SDS011;11287;48.122;11.536;2023-08-01T13:39:18;2.90;;;2.08;;
22236;SDS011;11287;48.122;11.536;2023-08-01T13:41:44;2.47;;;2.10;;
22236;SDS011;11287;48.122;11.536;2023-08-01T13:44:09;2.83;;;2.00;;
22236;SDS011;11287;48.122;11.536;2023-08-01T13:46:34;1.92;;;1.83;;
22236;SDS011;11287;48.122;11.536;2023-08-01T13:49:00;2.33;;;2.00;;
22236;SDS011;11287;48.122;11.536;2023-08-01T13:51:25;3.53;;;2.23;;
22236;SDS011;11287;48.122;11.536;2023-08-01T13:53:50;5.50;;;3.60;;
22236;SDS011;11287;48.122;11.536;2023-08-01T13:56:16;7.97;;;5.57;;
22236;SDS011;11287;48.122;11.536;2023-08-01T13:58:41;4.77;;;2.17;;
22236;SDS011;11287;48.122;11.536;2023-08-01T14:01:07;2.63;;;2.17;;
22236;SDS011;11287;48.122;11.536;2023-08-01T14:03:34;2.60;;;2.10;;
22236;SDS011;11287;48.122;11.536;2023-08-01T14:06:08;3.58;;;1.80;;
22236;SDS011;11287;48.122;11.536;2023-08-01T14:08:35;4.78;;;1.95;;
22236;SDS011;11287;48.122;11.536;2023-08-01T14:11:04;3.45;;;2.00;;
22236;SDS011;11287;48.122;11.536;2023-08-01T14:13:30;3.25;;;2.13;;
22236;SDS011;11287;48.122;11.536;2023-08-01T14:15:55;2.00;;;1.90;;
22236;SDS011;11287;48.122;11.536;2023-08-01T14:18:21;2.17;;;1.95;;
22236;SDS011;11287;48.122;11.536;2023-08-01T14:20:46;2.57;;;2.03;;
22236;SDS011;11287;48.122;11.536;2023-08-01T14:23:11;5.40;;;2.30;;
22236;SDS011;11287;48.122;11.536;2023-08-01T14:25:37;3.90;;;2.03;;
22236;SDS011;11287;48.122;11.536;2023-08-01T14:28:02;4.10;;;2.15;;
22236;SDS011;11287;48.122;11.536;2023-08-01T14:30:28;3.03;;;2.42;;